createdAt,value
2023-02-22T00:00:54.570Z,99327.78
2023-02-22T00:03:25.369Z,99318.22
2023-02-22T00:05:55.088Z,99317.25
2023-02-22T00:08:24.877Z,99322.25
2023-02-22T00:11:10.731Z,99330.00
2023-02-22T00:13:38.704Z,99332.78
2023-02-22T00:16:06.566Z,99327.00
2023-02-22T00:18:33.657Z,99327.00
2023-02-22T00:21:01.572Z,99328.31
2023-02-22T00:23:30.579Z,99328.25
2023-02-22T00:25:58.892Z,99330.91
2023-02-22T00:28:54.164Z,99336.72
2023-02-22T00:31:22.161Z,99332.31
2023-02-22T00:33:49.169Z,99335.03
2023-02-22T00:36:16.056Z,99326.94
2023-02-22T00:38:46.230Z,99334.63
2023-02-22T00:41:13.294Z,99337.19
2023-02-22T00:43:41.042Z,99320.81
2023-02-22T00:46:07.929Z,99331.97
2023-02-22T00:48:34.890Z,99328.50
2023-02-22T00:51:01.885Z,99324.50
2023-02-22T00:53:28.790Z,99323.50
2023-02-22T00:55:55.843Z,99322.41
2023-02-22T00:58:22.986Z,99325.81
2023-02-22T01:00:50.467Z,99323.41
2023-02-22T01:03:19.731Z,99313.84
2023-02-22T01:05:47.926Z,99319.72
2023-02-22T01:08:16.735Z,99332.63
2023-02-22T01:10:45.191Z,99319.63
2023-02-22T01:13:13.048Z,99306.59
2023-02-22T01:15:43.242Z,99316.22
2023-02-22T01:18:12.855Z,99315.84
2023-02-22T01:20:39.937Z,99312.56
2023-02-22T01:23:08.308Z,99305.34
2023-02-22T01:25:36.231Z,99309.47
2023-02-22T01:28:06.343Z,99315.53
2023-02-22T01:30:35.568Z,99314.50
2023-02-22T01:33:04.767Z,99301.44
2023-02-22T01:35:35.314Z,99314.91
2023-02-22T01:38:02.941Z,99308.28
2023-02-22T01:40:35.880Z,99303.94
2023-02-22T01:43:06.866Z,99296.00
2023-02-22T01:45:33.586Z,99311.34
2023-02-22T01:48:08.968Z,99306.25
2023-02-22T01:50:55.946Z,99304.53
2023-02-22T01:53:29.397Z,99308.75
2023-02-22T01:55:57.841Z,99298.78
2023-02-22T01:58:28.522Z,99305.34
2023-02-22T02:03:40.659Z,99299.41
2023-02-22T02:06:13.075Z,99308.44
2023-02-22T02:08:59.870Z,99300.72
2023-02-22T02:11:28.445Z,99310.03
2023-02-22T02:13:57.201Z,99302.13
2023-02-22T02:16:27.919Z,99301.97
2023-02-22T02:18:55.453Z,99305.56
2023-02-22T02:21:25.301Z,99306.94
2023-02-22T02:24:24.732Z,99308.34
2023-02-22T02:26:55.582Z,99307.97
2023-02-22T02:29:44.029Z,99308.19
2023-02-22T02:32:28.392Z,99298.47
2023-02-22T02:35:18.754Z,99307.72
2023-02-22T02:38:10.144Z,99316.34
2023-02-22T02:40:50.115Z,99307.63
2023-02-22T02:43:26.642Z,99312.97
2023-02-22T02:46:15.720Z,99315.78
2023-02-22T02:48:49.753Z,99324.91
2023-02-22T02:51:18.490Z,99321.25
2023-02-22T02:53:49.044Z,99324.28
2023-02-22T02:56:15.994Z,99321.31
2023-02-22T02:58:49.829Z,99329.00
2023-02-22T03:01:26.165Z,99323.88
2023-02-22T03:04:11.386Z,99319.72
2023-02-22T03:06:46.974Z,99332.97
2023-02-22T03:09:34.975Z,99339.78
2023-02-22T03:12:27.874Z,99329.41
2023-02-22T03:15:26.530Z,99330.28
2023-02-22T03:18:23.136Z,99326.16
2023-02-22T03:21:31.638Z,99330.97
2023-02-22T03:24:10.240Z,99334.00
2023-02-22T03:26:42.227Z,99334.22
2023-02-22T03:29:11.949Z,99337.75
2023-02-22T03:31:43.158Z,99338.66
2023-02-22T03:34:21.998Z,99325.72
2023-02-22T03:36:56.179Z,99333.41
2023-02-22T03:39:31.182Z,99337.72
2023-02-22T03:42:10.137Z,99339.22
2023-02-22T03:44:40.672Z,99340.31
2023-02-22T03:47:12.197Z,99328.28
2023-02-22T03:49:52.603Z,99339.59
2023-02-22T03:52:20.565Z,99337.25
2023-02-22T03:54:48.031Z,99341.69
2023-02-22T03:57:26.048Z,99344.81
2023-02-22T03:59:53.614Z,99333.06
2023-02-22T04:02:20.798Z,99335.50
2023-02-22T04:04:48.570Z,99340.38
2023-02-22T04:07:16.001Z,99344.34
2023-02-22T04:09:44.108Z,99340.59
2023-02-22T04:12:11.087Z,99332.91
2023-02-22T04:14:37.933Z,99328.19
2023-02-22T04:17:04.967Z,99332.44
2023-02-22T04:19:31.945Z,99333.94
2023-02-22T04:21:58.856Z,99326.06
2023-02-22T04:24:25.740Z,99333.94
2023-02-22T04:26:53.260Z,99329.19
2023-02-22T04:29:20.238Z,99325.53
2023-02-22T04:31:47.562Z,99331.09
2023-02-22T04:34:14.603Z,99329.63
2023-02-22T04:36:44.527Z,99331.13
2023-02-22T04:39:11.918Z,99332.78
2023-02-22T04:41:39.054Z,99334.31
2023-02-22T04:44:06.023Z,99332.84
2023-02-22T04:46:33.056Z,99329.09
2023-02-22T04:49:00.088Z,99329.22
2023-02-22T04:51:27.113Z,99337.50
2023-02-22T04:53:54.098Z,99332.41
2023-02-22T04:56:21.349Z,99338.38
2023-02-22T04:58:48.467Z,99333.69
2023-02-22T05:01:16.999Z,99327.44
2023-02-22T05:03:44.518Z,99334.34
2023-02-22T05:06:12.818Z,99337.00
2023-02-22T05:08:39.725Z,99335.28
2023-02-22T05:11:07.038Z,99340.31
2023-02-22T05:13:36.397Z,99326.91
2023-02-22T05:16:04.370Z,99334.03
2023-02-22T05:18:31.313Z,99338.34
2023-02-22T05:20:58.535Z,99333.78
2023-02-22T05:23:25.363Z,99337.28
2023-02-22T05:25:52.246Z,99352.06
2023-02-22T05:28:19.311Z,99353.09
2023-02-22T05:30:46.385Z,99357.09
2023-02-22T05:33:13.706Z,99352.44
2023-02-22T05:35:40.683Z,99354.09
2023-02-22T05:38:26.190Z,99358.44
2023-02-22T05:40:53.051Z,99360.22
2023-02-22T05:43:19.968Z,99355.97
2023-02-22T05:45:46.942Z,99367.47
2023-02-22T05:48:13.920Z,99370.88
2023-02-22T05:50:40.835Z,99377.72
2023-02-22T05:53:07.838Z,99374.78
2023-02-22T05:55:35.394Z,99381.03
2023-02-22T05:58:04.870Z,99383.25
2023-02-22T06:00:32.212Z,99373.25
2023-02-22T06:03:02.024Z,99388.69
2023-02-22T06:05:30.082Z,99377.16
2023-02-22T06:07:59.168Z,99385.13
2023-02-22T06:10:27.135Z,99386.63
2023-02-22T06:12:55.290Z,99392.47
2023-02-22T06:15:24.724Z,99397.19
2023-02-22T06:17:52.106Z,99392.94
2023-02-22T06:20:23.483Z,99405.06
2023-02-22T06:22:52.490Z,99413.78
2023-02-22T06:25:24.184Z,99405.34
2023-02-22T06:27:51.563Z,99410.75
2023-02-22T06:30:21.395Z,99407.88
2023-02-22T06:32:48.392Z,99414.59
2023-02-22T06:35:16.052Z,99412.09
2023-02-22T06:37:44.635Z,99416.69
2023-02-22T06:40:12.636Z,99414.22
2023-02-22T06:42:42.098Z,99417.13
2023-02-22T06:45:10.005Z,99413.63
2023-02-22T06:47:42.653Z,99423.16
2023-02-22T06:50:24.875Z,99421.50
2023-02-22T06:52:52.497Z,99421.50
2023-02-22T06:55:25.174Z,99418.00
2023-02-22T06:58:10.817Z,99423.19
2023-02-22T07:00:41.412Z,99417.59
2023-02-22T07:03:08.408Z,99419.22
2023-02-22T07:05:35.766Z,99400.06
2023-02-22T07:08:08.125Z,99408.69
2023-02-22T07:10:36.880Z,99416.13
2023-02-22T07:13:05.133Z,99416.91
2023-02-22T07:15:34.825Z,99419.53
2023-02-22T07:18:02.266Z,99417.16
2023-02-22T07:20:32.040Z,99420.59
2023-02-22T07:22:59.359Z,99418.81
2023-02-22T07:25:26.695Z,99420.84
2023-02-22T07:27:54.843Z,99417.97
2023-02-22T07:30:25.744Z,99408.28
2023-02-22T07:32:55.199Z,99411.06
2023-02-22T07:35:31.106Z,99415.06
2023-02-22T07:37:59.360Z,99417.94
2023-02-22T07:40:34.819Z,99409.53
2023-02-22T07:43:26.446Z,99404.75
2023-02-22T07:45:56.198Z,99416.22
2023-02-22T07:48:26.903Z,99423.13
2023-02-22T07:50:54.036Z,99415.97
2023-02-22T07:53:24.100Z,99410.22
2023-02-22T07:55:52.106Z,99413.13
2023-02-22T07:58:24.947Z,99414.50
2023-02-22T08:00:53.041Z,99415.91
2023-02-22T08:03:23.506Z,99401.59
2023-02-22T08:05:53.468Z,99407.56
2023-02-22T08:08:20.540Z,99404.47
2023-02-22T08:10:48.437Z,99410.53
2023-02-22T08:13:16.651Z,99399.63
2023-02-22T08:15:50.084Z,99403.63
2023-02-22T08:18:19.417Z,99399.84
2023-02-22T08:20:52.238Z,99394.34
2023-02-22T08:23:20.620Z,99398.63
2023-02-22T08:25:51.434Z,99393.44
2023-02-22T08:28:22.733Z,99394.78
2023-02-22T08:30:51.086Z,99391.78
2023-02-22T08:33:20.142Z,99387.16
2023-02-22T08:35:49.985Z,99387.38
2023-02-22T08:38:23.312Z,99391.84
2023-02-22T08:40:52.252Z,99390.91
2023-02-22T08:43:20.910Z,99382.19
2023-02-22T08:45:49.939Z,99385.31
2023-02-22T08:48:17.801Z,99377.84
2023-02-22T08:50:44.927Z,99384.41
2023-02-22T08:53:13.841Z,99381.50
2023-02-22T08:55:42.240Z,99373.09
2023-02-22T08:58:10.071Z,99379.22
2023-02-22T09:00:39.050Z,99378.09
2023-02-22T09:03:09.291Z,99379.81
2023-02-22T09:05:36.825Z,99375.81
2023-02-22T09:08:04.301Z,99379.50
2023-02-22T09:10:35.956Z,99378.16
2023-02-22T09:13:04.220Z,99380.22
2023-02-22T09:15:36.413Z,99376.03
2023-02-22T09:18:04.512Z,99365.44
2023-02-22T09:20:31.680Z,99366.97
2023-02-22T09:22:59.965Z,99364.97
2023-02-22T09:25:27.433Z,99369.44
2023-02-22T09:27:55.739Z,99364.16
2023-02-22T09:30:32.557Z,99364.25
2023-02-22T09:33:10.626Z,99366.53
2023-02-22T09:35:46.733Z,99366.19
2023-02-22T09:38:16.456Z,99363.75
2023-02-22T09:40:50.471Z,99354.19
2023-02-22T09:43:35.962Z,99354.22
2023-02-22T09:46:28.157Z,99350.59
2023-02-22T09:49:02.152Z,99348.19
2023-02-22T09:52:06.082Z,99343.22
2023-02-22T09:54:52.009Z,99342.66
2023-02-22T09:57:27.210Z,99345.13
2023-02-22T10:00:13.270Z,99342.28
2023-02-22T10:02:52.356Z,99340.53
2023-02-22T10:05:31.674Z,99341.84
2023-02-22T10:08:06.361Z,99339.63
2023-02-22T10:10:39.429Z,99331.16
2023-02-22T10:13:14.256Z,99324.75
2023-02-22T10:16:05.637Z,99322.19
2023-02-22T10:19:15.369Z,99328.31
2023-02-22T10:21:49.060Z,99321.28
2023-02-22T10:24:38.767Z,99314.88
2023-02-22T10:27:15.387Z,99301.75
2023-02-22T10:29:47.992Z,99305.00
2023-02-22T10:32:29.877Z,99294.28
2023-02-22T10:35:00.975Z,99303.25
2023-02-22T10:37:34.406Z,99298.56
2023-02-22T10:40:32.312Z,99289.72
2023-02-22T10:43:03.276Z,99284.31
2023-02-22T10:45:37.352Z,99280.31
2023-02-22T10:48:12.330Z,99278.38
2023-02-22T10:50:44.503Z,99272.34
2023-02-22T10:53:16.828Z,99267.25
2023-02-22T10:56:22.725Z,99266.66
2023-02-22T10:58:57.749Z,99267.22
2023-02-22T11:01:32.200Z,99257.78
2023-02-22T11:04:05.644Z,99253.16
2023-02-22T11:06:34.828Z,99245.81
2023-02-22T11:09:22.731Z,99249.75
2023-02-22T11:12:07.085Z,99244.91
2023-02-22T11:14:35.079Z,99231.28
2023-02-22T11:17:08.275Z,99231.47
2023-02-22T11:19:38.561Z,99236.03
2023-02-22T11:22:05.311Z,99227.97
2023-02-22T11:24:47.445Z,99235.44
2023-02-22T11:27:38.417Z,99227.81
2023-02-22T11:30:35.192Z,99226.22
2023-02-22T11:33:06.403Z,99218.50
2023-02-22T11:35:51.009Z,99221.75
2023-02-22T11:38:22.887Z,99220.22
2023-02-22T11:41:18.982Z,99216.38
2023-02-22T11:43:51.488Z,99215.06
2023-02-22T11:46:29.438Z,99203.28
2023-02-22T11:49:06.646Z,99200.84
2023-02-22T11:52:03.516Z,99198.78
2023-02-22T11:54:54.980Z,99191.22
2023-02-22T11:57:46.857Z,99192.94
2023-02-22T12:00:41.727Z,99191.28
2023-02-22T12:03:33.010Z,99188.09
2023-02-22T12:06:24.873Z,99176.31
2023-02-22T12:09:03.816Z,99171.25
2023-02-22T12:11:43.637Z,99163.81
2023-02-22T12:14:53.699Z,99167.19
2023-02-22T12:17:39.033Z,99154.75
2023-02-22T12:20:23.226Z,99166.50
2023-02-22T12:23:13.538Z,99166.97
2023-02-22T12:25:54.824Z,99159.47
2023-02-22T12:28:26.054Z,99155.84
2023-02-22T12:31:05.236Z,99152.28
2023-02-22T12:33:50.600Z,99155.94
2023-02-22T12:36:23.070Z,99153.72
2023-02-22T12:38:59.286Z,99142.22
2023-02-22T12:41:34.534Z,99147.09
2023-02-22T12:44:09.600Z,99150.78
2023-02-22T12:46:48.102Z,99140.06
2023-02-22T12:49:26.667Z,99140.00
2023-02-22T12:52:24.905Z,99132.34
2023-02-22T12:55:01.395Z,99132.09
2023-02-22T12:57:44.633Z,99131.88
2023-02-22T13:00:28.883Z,99134.47
2023-02-22T13:03:18.035Z,99129.59
2023-02-22T13:05:51.582Z,99133.13
2023-02-22T13:08:40.032Z,99127.53
2023-02-22T13:11:31.966Z,99123.41
2023-02-22T13:14:28.912Z,99123.41
2023-02-22T13:17:04.838Z,99126.53
2023-02-22T13:19:50.775Z,99117.78
2023-02-22T13:22:30.196Z,99123.06
2023-02-22T13:25:16.712Z,99120.25
2023-02-22T13:27:50.586Z,99117.09
2023-02-22T13:30:30.025Z,99123.97
2023-02-22T13:33:24.649Z,99115.91
2023-02-22T13:36:10.441Z,99117.00
2023-02-22T13:39:13.244Z,99108.47
2023-02-22T13:41:55.547Z,99119.31
2023-02-22T13:44:42.484Z,99123.56
2023-02-22T13:47:44.739Z,99124.00
2023-02-22T13:50:51.824Z,99121.50
2023-02-22T13:53:29.217Z,99110.84
2023-02-22T13:56:00.845Z,99121.31
2023-02-22T13:58:28.142Z,99115.78
2023-02-22T14:00:57.765Z,99115.06
2023-02-22T14:03:36.349Z,99113.16
2023-02-22T14:06:08.731Z,99121.56
2023-02-22T14:08:35.548Z,99119.44
2023-02-22T14:11:14.808Z,99119.31
2023-02-22T14:14:01.631Z,99115.63
2023-02-22T14:16:30.484Z,99113.94
2023-02-22T14:19:27.106Z,99115.03
2023-02-22T14:22:02.696Z,99112.03
2023-02-22T14:24:51.736Z,99109.81
2023-02-22T14:27:20.117Z,99105.97
2023-02-22T14:30:01.273Z,99110.19
2023-02-22T14:32:34.246Z,99112.66
2023-02-22T14:35:14.298Z,99106.81
2023-02-22T14:37:55.052Z,99112.84
2023-02-22T14:40:26.328Z,99097.44
2023-02-22T14:43:08.118Z,99113.25
2023-02-22T14:45:43.624Z,99110.84
2023-02-22T14:48:20.644Z,99107.06
2023-02-22T14:51:05.859Z,99106.59
2023-02-22T14:53:54.756Z,99103.91
2023-02-22T14:56:30.363Z,99109.06
2023-02-22T14:59:27.307Z,99104.91
2023-02-22T15:02:18.341Z,99112.53
2023-02-22T15:04:57.235Z,99114.97
2023-02-22T15:07:30.410Z,99107.13
2023-02-22T15:10:31.305Z,99109.91
2023-02-22T15:13:12.190Z,99108.25
2023-02-22T15:15:49.090Z,99106.03
2023-02-22T15:18:33.642Z,99106.84
2023-02-22T15:21:16.578Z,99105.13
2023-02-22T15:23:47.321Z,99104.44
2023-02-22T15:27:00.174Z,99100.31
2023-02-22T15:29:39.192Z,99097.72
2023-02-22T15:32:53.330Z,99104.72
2023-02-22T15:35:24.236Z,99104.69
2023-02-22T15:38:06.508Z,99106.56
2023-02-22T15:40:35.084Z,99110.94
2023-02-22T15:43:09.242Z,99100.63
2023-02-22T15:45:43.185Z,99099.06
2023-02-22T15:48:16.123Z,99107.94
2023-02-22T15:51:06.921Z,99105.41
2023-02-22T15:53:46.131Z,99104.63
2023-02-22T15:56:17.492Z,99104.69
2023-02-22T15:58:51.863Z,99108.34
2023-02-22T16:01:21.597Z,99112.78
2023-02-22T16:03:56.946Z,99115.44
2023-02-22T16:06:37.539Z,99113.78
2023-02-22T16:09:13.873Z,99117.28
2023-02-22T16:11:44.371Z,99120.00
2023-02-22T16:14:25.581Z,99112.19
2023-02-22T16:17:33.766Z,99119.25
2023-02-22T16:20:02.072Z,99116.69
2023-02-22T16:22:38.646Z,99124.56
2023-02-22T16:25:22.884Z,99120.34
2023-02-22T16:27:58.423Z,99130.00
2023-02-22T16:30:27.595Z,99122.19
2023-02-22T16:32:57.112Z,99130.06
2023-02-22T16:35:29.462Z,99137.97
2023-02-22T16:38:08.509Z,99144.06
2023-02-22T16:40:41.380Z,99145.00
2023-02-22T16:43:17.488Z,99158.06
2023-02-22T16:45:44.609Z,99154.56
2023-02-22T16:48:17.767Z,99154.56
2023-02-22T16:50:44.933Z,99165.88
2023-02-22T16:53:12.312Z,99162.44
2023-02-22T16:55:46.643Z,99158.97
2023-02-22T16:58:14.929Z,99162.47
2023-02-22T17:00:42.450Z,99168.56
2023-02-22T17:03:16.341Z,99164.22
2023-02-22T17:05:44.353Z,99168.56
2023-02-22T17:08:11.500Z,99185.94
2023-02-22T17:10:40.628Z,99188.56
2023-02-22T17:13:21.797Z,99186.81
2023-02-22T17:15:50.049Z,99187.72
2023-02-22T17:18:23.148Z,99187.72
2023-02-22T17:20:54.615Z,99191.16
2023-02-22T17:23:23.313Z,99193.81
2023-02-22T17:25:54.050Z,99196.34
2023-02-22T17:28:22.053Z,99193.78
2023-02-22T17:30:49.229Z,99188.56
2023-02-22T17:33:19.891Z,99188.56
2023-02-22T17:35:47.236Z,99187.72
2023-02-22T17:38:18.614Z,99192.00
2023-02-22T17:40:52.193Z,99187.66
2023-02-22T17:43:23.078Z,99192.88
2023-02-22T17:45:50.159Z,99187.66
2023-02-22T17:48:22.905Z,99188.50
2023-02-22T17:50:50.969Z,99185.03
2023-02-22T17:53:21.874Z,99180.69
2023-02-22T17:55:49.781Z,99180.63
2023-02-22T17:58:17.681Z,99182.38
2023-02-22T18:00:50.804Z,99177.13
2023-02-22T18:03:26.029Z,99180.56
2023-02-22T18:05:58.627Z,99180.53
2023-02-22T18:08:31.079Z,99176.19
2023-02-22T18:10:58.221Z,99180.50
2023-02-22T18:13:27.886Z,99173.47
2023-02-22T18:16:00.401Z,99177.78
2023-02-22T18:18:27.941Z,99180.31
2023-02-22T18:20:59.723Z,99182.84
2023-02-22T18:23:47.574Z,99170.63
2023-02-22T18:26:16.872Z,99183.59
2023-02-22T18:28:44.110Z,99181.75
2023-02-22T18:31:17.327Z,99180.88
2023-02-22T18:33:47.542Z,99186.00
2023-02-22T18:36:16.698Z,99185.03
2023-02-22T18:38:45.010Z,99184.03
2023-02-22T18:41:17.492Z,99184.72
2023-02-22T18:43:46.559Z,99193.34
2023-02-22T18:46:16.651Z,99176.88
2023-02-22T18:48:44.390Z,99176.00
2023-02-22T18:51:13.651Z,99176.75
2023-02-22T18:53:46.951Z,99178.47
2023-02-22T18:56:34.321Z,99178.53
2023-02-22T18:59:03.777Z,99184.63
2023-02-22T19:01:38.842Z,99175.88
2023-02-22T19:04:12.839Z,99176.72
2023-02-22T19:06:40.115Z,99180.00
2023-02-22T19:09:09.854Z,99173.88
2023-02-22T19:11:37.420Z,99179.94
2023-02-22T19:14:06.114Z,99174.88
2023-02-22T19:16:33.425Z,99181.50
2023-02-22T19:19:00.490Z,99177.25
2023-02-22T19:21:29.202Z,99171.06
2023-02-22T19:23:56.634Z,99176.25
2023-02-22T19:26:25.802Z,99181.31
2023-02-22T19:28:54.828Z,99183.16
2023-02-22T19:31:28.466Z,99196.84
2023-02-22T19:34:00.767Z,99183.75
2023-02-22T19:36:28.050Z,99191.44
2023-02-22T19:38:54.995Z,99195.66
2023-02-22T19:41:23.178Z,99191.22
2023-02-22T19:43:52.682Z,99196.47
2023-02-22T19:46:21.559Z,99193.91
2023-02-22T19:48:49.534Z,99195.44
2023-02-22T19:51:17.852Z,99193.66
2023-02-22T19:53:46.064Z,99200.50
2023-02-22T19:56:16.316Z,99197.16
2023-02-22T19:58:45.040Z,99201.31
2023-02-22T20:01:33.448Z,99195.03
2023-02-22T20:04:06.219Z,99202.91
2023-02-22T20:06:37.521Z,99203.91
2023-02-22T20:09:04.710Z,99203.03
2023-02-22T20:11:33.990Z,99207.28
2023-02-22T20:14:01.273Z,99204.66
2023-02-22T20:16:29.173Z,99205.19
2023-02-22T20:18:56.243Z,99204.38
2023-02-22T20:21:43.860Z,99206.97
2023-02-22T20:24:20.747Z,99207.53
2023-02-22T20:26:48.644Z,99211.84
2023-02-22T20:29:16.292Z,99207.44
2023-02-22T20:31:44.341Z,99210.91
2023-02-22T20:34:12.042Z,99207.44
2023-02-22T20:36:40.724Z,99201.38
2023-02-22T20:39:13.607Z,99183.94
2023-02-22T20:41:42.786Z,99198.72
2023-02-22T20:44:13.667Z,99201.22
2023-02-22T20:46:41.221Z,99202.91
2023-02-22T20:49:11.398Z,99209.81
2023-02-22T20:51:42.065Z,99204.47
2023-02-22T20:54:12.440Z,99211.34
2023-02-22T20:56:44.366Z,99213.88
2023-02-22T20:59:14.595Z,99205.84
2023-02-22T21:01:43.218Z,99199.06
2023-02-22T21:04:11.258Z,99205.38
2023-02-22T21:06:39.096Z,99209.69
2023-02-22T21:09:08.886Z,99209.47
2023-02-22T21:11:36.299Z,99204.19
2023-02-22T21:14:03.651Z,99198.16
2023-02-22T21:16:34.148Z,99206.00
2023-02-22T21:19:03.421Z,99205.88
2023-02-22T21:21:31.938Z,99208.38
2023-02-22T21:24:03.128Z,99213.44
2023-02-22T21:26:32.194Z,99201.16
2023-02-22T21:29:01.728Z,99204.63
2023-02-22T21:31:28.722Z,99191.72
2023-02-22T21:33:57.825Z,99197.03
2023-02-22T21:36:25.791Z,99192.31
2023-02-22T21:38:55.953Z,99196.59
2023-02-22T21:41:27.923Z,99185.84
2023-02-22T21:43:57.304Z,99196.00
2023-02-22T21:46:25.764Z,99197.69
2023-02-22T21:48:52.808Z,99196.06
2023-02-22T21:51:23.464Z,99199.69
2023-02-22T21:53:52.682Z,99197.75
2023-02-22T21:56:30.053Z,99192.09
2023-02-22T21:59:05.074Z,99195.91
2023-02-22T22:01:38.603Z,99185.63
2023-02-22T22:04:05.556Z,99188.66
2023-02-22T22:06:34.805Z,99194.44
2023-02-22T22:09:04.844Z,99193.75
2023-02-22T22:11:31.771Z,99194.69
2023-02-22T22:14:00.026Z,99197.88
2023-02-22T22:16:30.234Z,99186.50
2023-02-22T22:18:57.925Z,99191.81
2023-02-22T22:21:25.380Z,99185.44
2023-02-22T22:23:57.512Z,99189.94
2023-02-22T22:26:25.965Z,99193.41
2023-02-22T22:28:56.060Z,99187.53
2023-02-22T22:31:24.961Z,99187.25
2023-02-22T22:33:52.430Z,99189.81
2023-02-22T22:36:21.658Z,99198.34
2023-02-22T22:38:49.584Z,99197.28
2023-02-22T22:41:19.568Z,99192.28
2023-02-22T22:43:47.197Z,99191.63
2023-02-22T22:46:17.493Z,99192.59
2023-02-22T22:48:47.396Z,99192.81
2023-02-22T22:51:18.679Z,99200.66
2023-02-22T22:53:47.988Z,99185.50
2023-02-22T22:56:26.478Z,99194.31
2023-02-22T22:58:59.057Z,99195.94
2023-02-22T23:01:33.153Z,99189.81
2023-02-22T23:04:03.275Z,99190.44
2023-02-22T23:06:50.739Z,99190.13
2023-02-22T23:09:21.997Z,99188.56
2023-02-22T23:11:53.612Z,99188.31
2023-02-22T23:14:26.541Z,99190.78
2023-02-22T23:17:03.444Z,99185.59
2023-02-22T23:19:31.416Z,99190.38
2023-02-22T23:21:59.297Z,99186.66
2023-02-22T23:24:29.302Z,99180.66
2023-02-22T23:27:00.305Z,99175.50
2023-02-22T23:29:29.990Z,99175.03
2023-02-22T23:31:58.827Z,99175.22
2023-02-22T23:34:26.476Z,99176.00
2023-02-22T23:36:54.407Z,99163.22
2023-02-22T23:39:22.683Z,99178.97
2023-02-22T23:41:54.263Z,99175.03
2023-02-22T23:44:22.136Z,99169.94
2023-02-22T23:47:09.791Z,99170.66
2023-02-22T23:49:38.470Z,99174.38
2023-02-22T23:52:06.736Z,99169.09
2023-02-22T23:54:36.737Z,99170.78
2023-02-22T23:57:04.988Z,99173.69
2023-02-22T23:59:33.691Z,99176.06
